Pageland, South Carolina
Current Conditions -  °F | °C
As of 10:53 AM on Saturday 25 Oct 2014 (Local Time) from KEQY Reporting Station
Clear Clear  
Wind Chill: 63°   Ceiling: Unl
Heat Index: 63°   Visibility: 10mi
Dew Point: 40°   Wind: 9mph
Humidity: 43%   Direction: 30°NNE
Pressure: 30.04"   Gusts: NA
Location:  34.77°N, 80.39°W
Report Text: KEQY 251453Z AUTO 03008KT 10SM CLR 17/04 A3004 RMK AO2 SLP183 T01720044 50005
Loading
Personal Weather Stations






























Interactive Weather Map
Tropical Storm Tracking
New forecast layout! Learn more

10-Day Weather Forecast

Advertisements
Track Severe Weather on mobile